Pistol River, Oregon
Current Conditions -  °F | °C
As of 9:56 AM on Friday 31 Oct 2014 (Local Time) from KBOK Reporting Station
Scattered Clouds Scattered Clouds  
Wind Chill: 54°   Ceiling: Unl
Heat Index: 54°   Visibility: 10mi
Dew Point: 53°   Wind: 0mph
Humidity: 96%   Direction: NA
Pressure: 29.87"   Gusts: NA
Location:  42.5771°N, 124.359°W
Report Text: KBOK 311656Z AUTO 00000KT 10SM SCT050 12/12 A2987 RMK AO2 T01220116 SLP117
Loading
Personal Weather Stations






























Interactive Weather Map New forecast layout! Learn more

10-Day Weather Forecast

Advertisements
Track Severe Weather on mobile